sensor_id;sensor_type;location;lat;lon;timestamp;P1;durP1;ratioP1;P2;durP2;ratioP2
15633;SDS011;14654;48.898;8.308;2022-07-23T00:01:00;9.70;;;9.00;;
15633;SDS011;14654;48.898;8.308;2022-07-23T00:03:25;9.60;;;8.80;;
15633;SDS011;14654;48.898;8.308;2022-07-23T00:05:51;9.50;;;8.80;;
15633;SDS011;14654;48.898;8.308;2022-07-23T00:08:17;9.50;;;8.80;;
15633;SDS011;14654;48.898;8.308;2022-07-23T00:10:42;9.43;;;8.67;;
15633;SDS011;14654;48.898;8.308;2022-07-23T00:13:08;9.10;;;8.50;;
15633;SDS011;14654;48.898;8.308;2022-07-23T00:15:33;8.77;;;8.17;;
15633;SDS011;14654;48.898;8.308;2022-07-23T00:17:58;8.57;;;7.97;;
15633;SDS011;14654;48.898;8.308;2022-07-23T00:20:24;8.43;;;7.93;;
15633;SDS011;14654;48.898;8.308;2022-07-23T00:22:50;9.20;;;8.50;;
15633;SDS011;14654;48.898;8.308;2022-07-23T00:25:17;8.47;;;7.83;;
15633;SDS011;14654;48.898;8.308;2022-07-23T00:27:43;8.23;;;7.63;;
15633;SDS011;14654;48.898;8.308;2022-07-23T00:30:09;8.87;;;8.17;;
15633;SDS011;14654;48.898;8.308;2022-07-23T00:32:45;8.53;;;7.90;;
15633;SDS011;14654;48.898;8.308;2022-07-23T00:35:12;8.13;;;7.50;;
15633;SDS011;14654;48.898;8.308;2022-07-23T00:37:38;7.83;;;7.27;;
15633;SDS011;14654;48.898;8.308;2022-07-23T00:40:03;7.23;;;6.63;;
15633;SDS011;14654;48.898;8.308;2022-07-23T00:42:30;7.33;;;6.83;;
15633;SDS011;14654;48.898;8.308;2022-07-23T00:44:56;7.13;;;6.63;;
15633;SDS011;14654;48.898;8.308;2022-07-23T00:47:21;7.70;;;7.10;;
15633;SDS011;14654;48.898;8.308;2022-07-23T00:49:47;7.43;;;6.70;;
15633;SDS011;14654;48.898;8.308;2022-07-23T00:52:12;6.50;;;6.00;;
15633;SDS011;14654;48.898;8.308;2022-07-23T00:54:38;7.40;;;6.80;;
15633;SDS011;14654;48.898;8.308;2022-07-23T00:57:03;6.70;;;6.10;;
15633;SDS011;14654;48.898;8.308;2022-07-23T00:59:29;6.50;;;6.00;;
15633;SDS011;14654;48.898;8.308;2022-07-23T01:01:54;6.20;;;5.73;;
15633;SDS011;14654;48.898;8.308;2022-07-23T01:04:20;5.70;;;5.30;;
15633;SDS011;14654;48.898;8.308;2022-07-23T01:06:45;6.17;;;5.73;;
15633;SDS011;14654;48.898;8.308;2022-07-23T01:09:11;6.43;;;5.93;;
15633;SDS011;14654;48.898;8.308;2022-07-23T01:11:37;6.03;;;5.63;;
15633;SDS011;14654;48.898;8.308;2022-07-23T01:14:13;5.97;;;5.57;;
15633;SDS011;14654;48.898;8.308;2022-07-23T01:16:40;6.27;;;5.87;;
15633;SDS011;14654;48.898;8.308;2022-07-23T01:19:10;5.47;;;4.97;;
15633;SDS011;14654;48.898;8.308;2022-07-23T01:21:37;5.67;;;5.27;;
15633;SDS011;14654;48.898;8.308;2022-07-23T01:24:07;5.83;;;5.43;;
15633;SDS011;14654;48.898;8.308;2022-07-23T01:26:34;6.03;;;5.63;;
15633;SDS011;14654;48.898;8.308;2022-07-23T01:28:59;5.73;;;5.27;;
15633;SDS011;14654;48.898;8.308;2022-07-23T01:31:25;5.50;;;5.10;;
15633;SDS011;14654;48.898;8.308;2022-07-23T01:33:51;5.77;;;5.37;;
15633;SDS011;14654;48.898;8.308;2022-07-23T01:36:16;5.80;;;5.40;;
15633;SDS011;14654;48.898;8.308;2022-07-23T01:38:42;5.73;;;5.33;;
15633;SDS011;14654;48.898;8.308;2022-07-23T01:41:07;5.67;;;5.27;;
15633;SDS011;14654;48.898;8.308;2022-07-23T01:43:32;5.40;;;5.00;;
15633;SDS011;14654;48.898;8.308;2022-07-23T01:45:58;5.27;;;4.87;;
15633;SDS011;14654;48.898;8.308;2022-07-23T01:48:23;4.90;;;4.50;;
15633;SDS011;14654;48.898;8.308;2022-07-23T01:50:51;5.40;;;4.93;;
15633;SDS011;14654;48.898;8.308;2022-07-23T01:53:17;5.70;;;5.20;;
15633;SDS011;14654;48.898;8.308;2022-07-23T01:55:42;5.80;;;5.40;;
15633;SDS011;14654;48.898;8.308;2022-07-23T01:58:08;5.60;;;5.20;;
15633;SDS011;14654;48.898;8.308;2022-07-23T02:00:34;5.37;;;4.97;;
15633;SDS011;14654;48.898;8.308;2022-07-23T02:02:59;5.13;;;4.73;;
15633;SDS011;14654;48.898;8.308;2022-07-23T02:05:25;6.00;;;5.50;;
15633;SDS011;14654;48.898;8.308;2022-07-23T02:07:51;5.73;;;5.20;;
15633;SDS011;14654;48.898;8.308;2022-07-23T02:10:17;5.97;;;5.47;;
15633;SDS011;14654;48.898;8.308;2022-07-23T02:12:42;5.90;;;5.43;;
15633;SDS011;14654;48.898;8.308;2022-07-23T02:15:08;5.73;;;5.27;;
15633;SDS011;14654;48.898;8.308;2022-07-23T02:17:34;6.23;;;5.63;;
15633;SDS011;14654;48.898;8.308;2022-07-23T02:19:59;6.13;;;5.63;;
15633;SDS011;14654;48.898;8.308;2022-07-23T02:22:25;5.70;;;5.23;;
15633;SDS011;14654;48.898;8.308;2022-07-23T02:24:50;5.63;;;5.23;;
15633;SDS011;14654;48.898;8.308;2022-07-23T02:27:15;5.60;;;5.20;;
15633;SDS011;14654;48.898;8.308;2022-07-23T02:29:41;5.17;;;4.80;;
15633;SDS011;14654;48.898;8.308;2022-07-23T02:32:09;5.87;;;5.30;;
15633;SDS011;14654;48.898;8.308;2022-07-23T02:34:34;5.70;;;5.30;;
15633;SDS011;14654;48.898;8.308;2022-07-23T02:36:59;5.70;;;5.20;;
15633;SDS011;14654;48.898;8.308;2022-07-23T02:39:25;5.47;;;5.07;;
15633;SDS011;14654;48.898;8.308;2022-07-23T02:41:51;5.20;;;4.80;;
15633;SDS011;14654;48.898;8.308;2022-07-23T02:44:16;5.33;;;4.93;;
15633;SDS011;14654;48.898;8.308;2022-07-23T02:46:41;5.43;;;5.03;;
15633;SDS011;14654;48.898;8.308;2022-07-23T02:49:07;4.73;;;4.43;;
15633;SDS011;14654;48.898;8.308;2022-07-23T02:51:32;5.63;;;5.23;;
15633;SDS011;14654;48.898;8.308;2022-07-23T02:53:58;5.60;;;5.20;;
15633;SDS011;14654;48.898;8.308;2022-07-23T02:56:23;4.80;;;4.50;;
15633;SDS011;14654;48.898;8.308;2022-07-23T02:58:49;5.10;;;4.70;;
15633;SDS011;14654;48.898;8.308;2022-07-23T03:01:14;5.50;;;5.10;;
15633;SDS011;14654;48.898;8.308;2022-07-23T03:03:39;5.50;;;5.10;;
15633;SDS011;14654;48.898;8.308;2022-07-23T03:06:05;5.47;;;5.07;;
15633;SDS011;14654;48.898;8.308;2022-07-23T03:08:30;5.70;;;5.30;;
15633;SDS011;14654;48.898;8.308;2022-07-23T03:10:56;5.30;;;5.00;;
15633;SDS011;14654;48.898;8.308;2022-07-23T03:13:21;5.50;;;5.10;;
15633;SDS011;14654;48.898;8.308;2022-07-23T03:15:46;5.33;;;4.93;;
15633;SDS011;14654;48.898;8.308;2022-07-23T03:18:12;5.20;;;4.80;;
15633;SDS011;14654;48.898;8.308;2022-07-23T03:20:37;5.53;;;5.13;;
15633;SDS011;14654;48.898;8.308;2022-07-23T03:23:03;5.20;;;4.80;;
15633;SDS011;14654;48.898;8.308;2022-07-23T03:25:28;5.33;;;4.97;;
15633;SDS011;14654;48.898;8.308;2022-07-23T03:27:53;5.97;;;5.57;;
15633;SDS011;14654;48.898;8.308;2022-07-23T03:30:19;6.00;;;5.50;;
15633;SDS011;14654;48.898;8.308;2022-07-23T03:32:44;5.57;;;5.17;;
15633;SDS011;14654;48.898;8.308;2022-07-23T03:35:10;5.70;;;5.30;;
15633;SDS011;14654;48.898;8.308;2022-07-23T03:37:35;5.43;;;5.03;;
15633;SDS011;14654;48.898;8.308;2022-07-23T03:40:01;5.70;;;5.20;;
15633;SDS011;14654;48.898;8.308;2022-07-23T03:42:26;5.93;;;5.53;;
15633;SDS011;14654;48.898;8.308;2022-07-23T03:44:52;6.33;;;5.83;;
15633;SDS011;14654;48.898;8.308;2022-07-23T03:47:17;7.10;;;6.50;;
15633;SDS011;14654;48.898;8.308;2022-07-23T03:49:46;6.67;;;6.13;;
15633;SDS011;14654;48.898;8.308;2022-07-23T03:52:13;6.87;;;6.27;;
15633;SDS011;14654;48.898;8.308;2022-07-23T03:54:38;7.20;;;6.60;;
15633;SDS011;14654;48.898;8.308;2022-07-23T03:57:04;7.10;;;6.40;;
15633;SDS011;14654;48.898;8.308;2022-07-23T03:59:29;6.23;;;5.73;;
15633;SDS011;14654;48.898;8.308;2022-07-23T04:02:02;7.00;;;6.40;;
15633;SDS011;14654;48.898;8.308;2022-07-23T04:04:27;6.47;;;6.00;;
15633;SDS011;14654;48.898;8.308;2022-07-23T04:06:55;6.60;;;6.10;;
15633;SDS011;14654;48.898;8.308;2022-07-23T04:09:21;5.97;;;5.57;;
15633;SDS011;14654;48.898;8.308;2022-07-23T04:11:46;6.17;;;5.77;;
15633;SDS011;14654;48.898;8.308;2022-07-23T04:14:11;6.13;;;5.73;;
15633;SDS011;14654;48.898;8.308;2022-07-23T04:16:37;6.00;;;5.60;;
15633;SDS011;14654;48.898;8.308;2022-07-23T04:19:03;5.53;;;5.17;;
15633;SDS011;14654;48.898;8.308;2022-07-23T04:21:29;6.00;;;5.60;;
15633;SDS011;14654;48.898;8.308;2022-07-23T04:23:55;5.80;;;5.40;;
15633;SDS011;14654;48.898;8.308;2022-07-23T04:26:20;5.70;;;5.30;;
15633;SDS011;14654;48.898;8.308;2022-07-23T04:28:46;5.70;;;5.27;;
15633;SDS011;14654;48.898;8.308;2022-07-23T04:31:11;6.50;;;6.00;;
15633;SDS011;14654;48.898;8.308;2022-07-23T04:33:37;6.07;;;5.67;;
15633;SDS011;14654;48.898;8.308;2022-07-23T04:36:02;6.53;;;5.93;;
15633;SDS011;14654;48.898;8.308;2022-07-23T04:38:28;6.50;;;6.00;;
15633;SDS011;14654;48.898;8.308;2022-07-23T04:40:53;5.97;;;5.47;;
15633;SDS011;14654;48.898;8.308;2022-07-23T04:43:19;6.27;;;5.67;;
15633;SDS011;14654;48.898;8.308;2022-07-23T04:45:45;6.23;;;5.73;;
15633;SDS011;14654;48.898;8.308;2022-07-23T04:48:11;5.80;;;5.40;;
15633;SDS011;14654;48.898;8.308;2022-07-23T04:50:36;5.90;;;5.50;;
15633;SDS011;14654;48.898;8.308;2022-07-23T04:53:02;6.30;;;5.70;;
15633;SDS011;14654;48.898;8.308;2022-07-23T04:55:27;5.97;;;5.57;;
15633;SDS011;14654;48.898;8.308;2022-07-23T04:57:53;6.10;;;5.70;;
15633;SDS011;14654;48.898;8.308;2022-07-23T05:00:18;6.23;;;5.63;;
15633;SDS011;14654;48.898;8.308;2022-07-23T05:02:44;5.60;;;5.20;;
15633;SDS011;14654;48.898;8.308;2022-07-23T05:05:12;5.67;;;5.00;;
15633;SDS011;14654;48.898;8.308;2022-07-23T05:07:38;5.50;;;5.10;;
15633;SDS011;14654;48.898;8.308;2022-07-23T05:10:03;5.33;;;4.93;;
15633;SDS011;14654;48.898;8.308;2022-07-23T05:12:29;5.70;;;5.20;;
15633;SDS011;14654;48.898;8.308;2022-07-23T05:14:54;5.37;;;4.97;;
15633;SDS011;14654;48.898;8.308;2022-07-23T05:17:20;5.53;;;5.17;;
15633;SDS011;14654;48.898;8.308;2022-07-23T05:19:47;5.50;;;5.10;;
15633;SDS011;14654;48.898;8.308;2022-07-23T05:22:12;5.77;;;5.37;;
15633;SDS011;14654;48.898;8.308;2022-07-23T05:24:38;5.63;;;5.23;;
15633;SDS011;14654;48.898;8.308;2022-07-23T05:27:03;5.37;;;4.97;;
15633;SDS011;14654;48.898;8.308;2022-07-23T05:29:28;5.90;;;5.50;;
15633;SDS011;14654;48.898;8.308;2022-07-23T05:31:54;6.17;;;5.67;;
15633;SDS011;14654;48.898;8.308;2022-07-23T05:34:19;5.80;;;5.40;;
15633;SDS011;14654;48.898;8.308;2022-07-23T05:36:44;5.63;;;5.23;;
15633;SDS011;14654;48.898;8.308;2022-07-23T05:39:10;5.97;;;5.57;;
15633;SDS011;14654;48.898;8.308;2022-07-23T05:41:36;6.40;;;5.80;;
15633;SDS011;14654;48.898;8.308;2022-07-23T05:44:01;5.60;;;5.10;;
15633;SDS011;14654;48.898;8.308;2022-07-23T05:46:26;5.70;;;5.30;;
15633;SDS011;14654;48.898;8.308;2022-07-23T05:48:52;6.00;;;5.50;;
15633;SDS011;14654;48.898;8.308;2022-07-23T05:51:21;5.80;;;5.40;;
15633;SDS011;14654;48.898;8.308;2022-07-23T05:53:47;6.47;;;6.07;;
15633;SDS011;14654;48.898;8.308;2022-07-23T05:56:12;5.87;;;5.47;;
15633;SDS011;14654;48.898;8.308;2022-07-23T05:58:38;5.90;;;5.40;;
15633;SDS011;14654;48.898;8.308;2022-07-23T06:01:03;6.70;;;6.10;;
15633;SDS011;14654;48.898;8.308;2022-07-23T06:03:29;7.13;;;6.63;;
15633;SDS011;14654;48.898;8.308;2022-07-23T06:05:54;7.90;;;7.20;;
15633;SDS011;14654;48.898;8.308;2022-07-23T06:08:19;8.10;;;7.43;;
15633;SDS011;14654;48.898;8.308;2022-07-23T06:10:45;7.80;;;7.00;;
15633;SDS011;14654;48.898;8.308;2022-07-23T06:13:10;8.23;;;7.50;;
15633;SDS011;14654;48.898;8.308;2022-07-23T06:15:36;8.90;;;8.10;;
15633;SDS011;14654;48.898;8.308;2022-07-23T06:18:01;7.90;;;7.30;;
15633;SDS011;14654;48.898;8.308;2022-07-23T06:20:26;8.40;;;7.67;;
15633;SDS011;14654;48.898;8.308;2022-07-23T06:22:52;7.43;;;6.83;;
15633;SDS011;14654;48.898;8.308;2022-07-23T06:25:17;7.60;;;7.00;;
15633;SDS011;14654;48.898;8.308;2022-07-23T06:27:42;8.00;;;7.30;;
15633;SDS011;14654;48.898;8.308;2022-07-23T06:30:08;8.20;;;7.60;;
15633;SDS011;14654;48.898;8.308;2022-07-23T06:32:35;8.10;;;7.50;;
15633;SDS011;14654;48.898;8.308;2022-07-23T06:35:00;7.80;;;7.20;;
15633;SDS011;14654;48.898;8.308;2022-07-23T06:37:26;8.40;;;7.60;;
15633;SDS011;14654;48.898;8.308;2022-07-23T06:39:51;7.63;;;7.00;;
15633;SDS011;14654;48.898;8.308;2022-07-23T06:42:16;7.17;;;6.67;;
15633;SDS011;14654;48.898;8.308;2022-07-23T06:44:42;7.10;;;6.50;;
15633;SDS011;14654;48.898;8.308;2022-07-23T06:47:07;7.40;;;6.70;;
15633;SDS011;14654;48.898;8.308;2022-07-23T06:49:33;7.80;;;7.20;;
15633;SDS011;14654;48.898;8.308;2022-07-23T06:51:58;8.43;;;7.73;;
15633;SDS011;14654;48.898;8.308;2022-07-23T06:54:24;7.23;;;6.73;;
15633;SDS011;14654;48.898;8.308;2022-07-23T06:56:49;7.57;;;7.03;;
15633;SDS011;14654;48.898;8.308;2022-07-23T06:59:14;10.13;;;7.00;;
15633;SDS011;14654;48.898;8.308;2022-07-23T07:01:40;7.43;;;6.83;;
15633;SDS011;14654;48.898;8.308;2022-07-23T07:04:05;8.57;;;7.87;;
15633;SDS011;14654;48.898;8.308;2022-07-23T07:06:31;8.07;;;7.47;;
15633;SDS011;14654;48.898;8.308;2022-07-23T07:08:56;8.00;;;7.40;;
15633;SDS011;14654;48.898;8.308;2022-07-23T07:11:22;7.90;;;7.30;;
15633;SDS011;14654;48.898;8.308;2022-07-23T07:13:48;7.97;;;7.37;;
15633;SDS011;14654;48.898;8.308;2022-07-23T07:16:14;7.53;;;6.93;;
15633;SDS011;14654;48.898;8.308;2022-07-23T07:18:39;7.23;;;6.73;;
15633;SDS011;14654;48.898;8.308;2022-07-23T07:21:05;7.80;;;7.20;;
15633;SDS011;14654;48.898;8.308;2022-07-23T07:23:30;7.63;;;7.03;;
15633;SDS011;14654;48.898;8.308;2022-07-23T07:25:56;7.40;;;6.90;;
15633;SDS011;14654;48.898;8.308;2022-07-23T07:28:22;7.67;;;7.07;;
15633;SDS011;14654;48.898;8.308;2022-07-23T07:30:47;7.13;;;6.57;;
15633;SDS011;14654;48.898;8.308;2022-07-23T07:33:12;7.30;;;6.80;;
15633;SDS011;14654;48.898;8.308;2022-07-23T07:35:38;7.87;;;7.27;;
15633;SDS011;14654;48.898;8.308;2022-07-23T07:38:03;7.67;;;6.97;;
15633;SDS011;14654;48.898;8.308;2022-07-23T07:40:29;7.47;;;6.87;;
15633;SDS011;14654;48.898;8.308;2022-07-23T07:42:54;7.63;;;6.93;;
15633;SDS011;14654;48.898;8.308;2022-07-23T07:45:22;7.10;;;6.60;;
15633;SDS011;14654;48.898;8.308;2022-07-23T07:47:48;8.87;;;8.07;;
15633;SDS011;14654;48.898;8.308;2022-07-23T07:50:14;8.63;;;7.93;;
15633;SDS011;14654;48.898;8.308;2022-07-23T07:52:39;8.37;;;7.67;;
15633;SDS011;14654;48.898;8.308;2022-07-23T07:55:06;7.80;;;7.20;;
15633;SDS011;14654;48.898;8.308;2022-07-23T07:57:33;6.83;;;6.23;;
15633;SDS011;14654;48.898;8.308;2022-07-23T07:59:59;7.67;;;7.07;;
15633;SDS011;14654;48.898;8.308;2022-07-23T08:02:24;7.23;;;6.73;;
15633;SDS011;14654;48.898;8.308;2022-07-23T08:04:50;7.13;;;6.63;;
15633;SDS011;14654;48.898;8.308;2022-07-23T08:07:15;7.23;;;6.73;;
15633;SDS011;14654;48.898;8.308;2022-07-23T08:09:41;6.90;;;6.30;;
15633;SDS011;14654;48.898;8.308;2022-07-23T08:12:06;7.80;;;7.20;;
15633;SDS011;14654;48.898;8.308;2022-07-23T08:14:32;6.93;;;6.40;;
15633;SDS011;14654;48.898;8.308;2022-07-23T08:16:57;7.33;;;6.73;;
15633;SDS011;14654;48.898;8.308;2022-07-23T08:19:23;6.70;;;6.20;;
15633;SDS011;14654;48.898;8.308;2022-07-23T08:21:48;6.97;;;6.47;;
15633;SDS011;14654;48.898;8.308;2022-07-23T08:24:14;7.00;;;6.40;;
15633;SDS011;14654;48.898;8.308;2022-07-23T08:26:39;6.87;;;6.37;;
15633;SDS011;14654;48.898;8.308;2022-07-23T08:29:05;6.53;;;6.10;;
15633;SDS011;14654;48.898;8.308;2022-07-23T08:31:31;7.27;;;6.77;;
15633;SDS011;14654;48.898;8.308;2022-07-23T08:33:58;6.80;;;6.30;;
15633;SDS011;14654;48.898;8.308;2022-07-23T08:36:24;7.57;;;6.97;;
15633;SDS011;14654;48.898;8.308;2022-07-23T08:38:52;7.00;;;6.50;;
15633;SDS011;14654;48.898;8.308;2022-07-23T08:41:18;7.03;;;6.53;;
15633;SDS011;14654;48.898;8.308;2022-07-23T08:43:44;7.27;;;6.67;;
15633;SDS011;14654;48.898;8.308;2022-07-23T08:46:09;7.57;;;6.97;;
15633;SDS011;14654;48.898;8.308;2022-07-23T08:48:35;7.43;;;6.83;;
15633;SDS011;14654;48.898;8.308;2022-07-23T08:51:04;7.37;;;6.77;;
15633;SDS011;14654;48.898;8.308;2022-07-23T08:53:32;7.50;;;6.90;;
15633;SDS011;14654;48.898;8.308;2022-07-23T08:55:59;8.03;;;7.43;;
15633;SDS011;14654;48.898;8.308;2022-07-23T08:58:28;7.60;;;7.00;;
15633;SDS011;14654;48.898;8.308;2022-07-23T09:00:55;7.53;;;7.00;;
15633;SDS011;14654;48.898;8.308;2022-07-23T09:03:25;7.67;;;7.17;;
15633;SDS011;14654;48.898;8.308;2022-07-23T09:05:53;7.10;;;6.40;;
15633;SDS011;14654;48.898;8.308;2022-07-23T09:08:25;7.80;;;7.23;;
15633;SDS011;14654;48.898;8.308;2022-07-23T09:11:01;8.47;;;7.77;;
15633;SDS011;14654;48.898;8.308;2022-07-23T09:18:39;8.43;;;7.83;;
15633;SDS011;14654;48.898;8.308;2022-07-23T09:23:42;8.07;;;7.37;;
15633;SDS011;14654;48.898;8.308;2022-07-23T09:26:42;8.40;;;7.73;;
15633;SDS011;14654;48.898;8.308;2022-07-23T09:29:18;7.90;;;7.40;;
15633;SDS011;14654;48.898;8.308;2022-07-23T09:31:55;7.70;;;7.20;;
15633;SDS011;14654;48.898;8.308;2022-07-23T09:34:25;8.17;;;7.53;;
15633;SDS011;14654;48.898;8.308;2022-07-23T09:36:54;8.27;;;7.67;;
15633;SDS011;14654;48.898;8.308;2022-07-23T09:39:28;8.27;;;7.60;;
15633;SDS011;14654;48.898;8.308;2022-07-23T09:41:55;8.27;;;7.67;;
15633;SDS011;14654;48.898;8.308;2022-07-23T09:44:23;7.50;;;6.90;;
15633;SDS011;14654;48.898;8.308;2022-07-23T09:46:49;8.03;;;7.43;;
15633;SDS011;14654;48.898;8.308;2022-07-23T09:49:22;7.67;;;7.17;;
15633;SDS011;14654;48.898;8.308;2022-07-23T09:54:47;6.87;;;6.30;;
15633;SDS011;14654;48.898;8.308;2022-07-23T09:57:09;7.20;;;6.60;;
15633;SDS011;14654;48.898;8.308;2022-07-23T09:59:42;7.60;;;7.10;;
15633;SDS011;14654;48.898;8.308;2022-07-23T10:02:10;6.87;;;6.37;;
15633;SDS011;14654;48.898;8.308;2022-07-23T10:04:38;7.20;;;6.70;;
15633;SDS011;14654;48.898;8.308;2022-07-23T10:07:04;7.63;;;7.10;;
15633;SDS011;14654;48.898;8.308;2022-07-23T10:09:33;7.40;;;6.80;;
15633;SDS011;14654;48.898;8.308;2022-07-23T10:12:03;7.33;;;6.83;;
15633;SDS011;14654;48.898;8.308;2022-07-23T10:14:48;7.30;;;6.70;;
15633;SDS011;14654;48.898;8.308;2022-07-23T10:17:14;7.50;;;6.90;;
15633;SDS011;14654;48.898;8.308;2022-07-23T10:19:40;7.73;;;7.13;;
15633;SDS011;14654;48.898;8.308;2022-07-23T10:22:09;7.60;;;7.00;;
15633;SDS011;14654;48.898;8.308;2022-07-23T10:36:12;7.20;;;6.70;;
15633;SDS011;14654;48.898;8.308;2022-07-23T10:44:17;7.70;;;7.20;;
15633;SDS011;14654;48.898;8.308;2022-07-23T10:46:57;7.10;;;6.60;;
15633;SDS011;14654;48.898;8.308;2022-07-23T10:49:30;7.37;;;6.70;;
15633;SDS011;14654;48.898;8.308;2022-07-23T10:57:48;7.53;;;7.03;;
15633;SDS011;14654;48.898;8.308;2022-07-23T11:00:20;6.87;;;6.37;;
15633;SDS011;14654;48.898;8.308;2022-07-23T11:02:46;7.57;;;6.97;;
15633;SDS011;14654;48.898;8.308;2022-07-23T11:05:16;7.50;;;6.90;;
15633;SDS011;14654;48.898;8.308;2022-07-23T11:10:35;7.40;;;6.90;;
15633;SDS011;14654;48.898;8.308;2022-07-23T11:19:12;7.07;;;6.63;;
15633;SDS011;14654;48.898;8.308;2022-07-23T11:24:03;7.45;;;6.95;;
15633;SDS011;14654;48.898;8.308;2022-07-23T11:34:30;6.45;;;6.05;;
15633;SDS011;14654;48.898;8.308;2022-07-23T11:36:56;7.25;;;6.70;;
15633;SDS011;14654;48.898;8.308;2022-07-23T11:39:22;7.10;;;6.63;;
15633;SDS011;14654;48.898;8.308;2022-07-23T11:41:54;7.18;;;6.68;;
15633;SDS011;14654;48.898;8.308;2022-07-23T11:44:29;6.95;;;6.47;;
15633;SDS011;14654;48.898;8.308;2022-07-23T11:46:57;6.80;;;6.30;;
15633;SDS011;14654;48.898;8.308;2022-07-23T11:49:29;7.55;;;6.95;;
15633;SDS011;14654;48.898;8.308;2022-07-23T11:54:36;7.18;;;6.68;;
15633;SDS011;14654;48.898;8.308;2022-07-23T11:57:12;7.38;;;6.88;;
15633;SDS011;14654;48.898;8.308;2022-07-23T11:59:37;6.82;;;6.25;;
15633;SDS011;14654;48.898;8.308;2022-07-23T12:02:04;6.47;;;6.07;;
15633;SDS011;14654;48.898;8.308;2022-07-23T12:04:40;7.30;;;6.80;;
15633;SDS011;14654;48.898;8.308;2022-07-23T12:09:56;6.88;;;6.43;;
15633;SDS011;14654;48.898;8.308;2022-07-23T12:12:24;7.55;;;7.03;;
15633;SDS011;14654;48.898;8.308;2022-07-23T12:14:54;7.25;;;6.75;;
15633;SDS011;14654;48.898;8.308;2022-07-23T12:17:27;7.13;;;6.63;;
15633;SDS011;14654;48.898;8.308;2022-07-23T12:19:55;7.72;;;7.13;;
15633;SDS011;14654;48.898;8.308;2022-07-23T12:22:23;7.07;;;6.57;;
15633;SDS011;14654;48.898;8.308;2022-07-23T12:27:22;7.25;;;6.75;;
15633;SDS011;14654;48.898;8.308;2022-07-23T12:29:48;7.00;;;6.50;;
15633;SDS011;14654;48.898;8.308;2022-07-23T12:32:24;6.95;;;6.45;;
15633;SDS011;14654;48.898;8.308;2022-07-23T12:35:02;7.10;;;6.50;;
15633;SDS011;14654;48.898;8.308;2022-07-23T12:37:31;8.68;;;7.93;;
15633;SDS011;14654;48.898;8.308;2022-07-23T12:39:58;7.57;;;6.95;;
15633;SDS011;14654;48.898;8.308;2022-07-23T12:42:23;7.95;;;7.18;;
15633;SDS011;14654;48.898;8.308;2022-07-23T12:45:08;8.55;;;7.45;;
15633;SDS011;14654;48.898;8.308;2022-07-23T12:53:03;7.47;;;6.97;;
15633;SDS011;14654;48.898;8.308;2022-07-23T12:55:29;7.93;;;7.35;;
15633;SDS011;14654;48.898;8.308;2022-07-23T12:58:02;8.48;;;7.72;;
15633;SDS011;14654;48.898;8.308;2022-07-23T13:00:52;8.07;;;7.50;;
15633;SDS011;14654;48.898;8.308;2022-07-23T13:05:50;7.78;;;7.18;;
15633;SDS011;14654;48.898;8.308;2022-07-23T13:08:16;7.80;;;7.18;;
15633;SDS011;14654;48.898;8.308;2022-07-23T13:10:41;8.02;;;7.32;;
15633;SDS011;14654;48.898;8.308;2022-07-23T13:13:10;7.32;;;6.65;;
15633;SDS011;14654;48.898;8.308;2022-07-23T13:15:36;6.93;;;6.33;;
15633;SDS011;14654;48.898;8.308;2022-07-23T13:18:03;7.15;;;6.65;;
15633;SDS011;14654;48.898;8.308;2022-07-23T13:20:29;8.02;;;7.32;;
15633;SDS011;14654;48.898;8.308;2022-07-23T13:22:56;8.32;;;7.60;;
15633;SDS011;14654;48.898;8.308;2022-07-23T13:25:22;8.18;;;7.57;;
15633;SDS011;14654;48.898;8.308;2022-07-23T13:27:48;7.30;;;6.80;;
15633;SDS011;14654;48.898;8.308;2022-07-23T13:30:13;7.60;;;7.10;;
15633;SDS011;14654;48.898;8.308;2022-07-23T13:32:40;7.32;;;6.82;;
15633;SDS011;14654;48.898;8.308;2022-07-23T13:35:05;7.40;;;6.80;;
15633;SDS011;14654;48.898;8.308;2022-07-23T13:37:31;7.40;;;6.90;;
15633;SDS011;14654;48.898;8.308;2022-07-23T13:39:57;7.70;;;7.17;;
15633;SDS011;14654;48.898;8.308;2022-07-23T13:42:22;7.35;;;6.88;;
15633;SDS011;14654;48.898;8.308;2022-07-23T13:44:47;7.28;;;6.78;;
15633;SDS011;14654;48.898;8.308;2022-07-23T13:47:13;7.30;;;6.80;;
15633;SDS011;14654;48.898;8.308;2022-07-23T13:49:38;7.25;;;6.65;;
15633;SDS011;14654;48.898;8.308;2022-07-23T13:52:04;7.20;;;6.70;;
15633;SDS011;14654;48.898;8.308;2022-07-23T13:54:29;7.50;;;6.90;;
15633;SDS011;14654;48.898;8.308;2022-07-23T13:56:55;7.30;;;6.70;;
15633;SDS011;14654;48.898;8.308;2022-07-23T13:59:20;6.53;;;6.13;;
15633;SDS011;14654;48.898;8.308;2022-07-23T14:01:46;7.72;;;7.05;;
15633;SDS011;14654;48.898;8.308;2022-07-23T14:04:11;6.72;;;6.32;;
15633;SDS011;14654;48.898;8.308;2022-07-23T14:06:37;7.15;;;6.65;;
15633;SDS011;14654;48.898;8.308;2022-07-23T14:09:02;6.78;;;6.28;;
15633;SDS011;14654;48.898;8.308;2022-07-23T14:11:27;6.95;;;6.45;;
15633;SDS011;14654;48.898;8.308;2022-07-23T14:13:55;7.45;;;6.95;;
15633;SDS011;14654;48.898;8.308;2022-07-23T14:16:21;7.93;;;7.32;;
15633;SDS011;14654;48.898;8.308;2022-07-23T14:18:46;7.53;;;7.03;;
15633;SDS011;14654;48.898;8.308;2022-07-23T14:21:12;7.20;;;6.63;;
15633;SDS011;14654;48.898;8.308;2022-07-23T14:23:37;7.30;;;6.80;;
15633;SDS011;14654;48.898;8.308;2022-07-23T14:26:02;7.43;;;6.93;;
15633;SDS011;14654;48.898;8.308;2022-07-23T14:28:28;7.38;;;6.88;;
15633;SDS011;14654;48.898;8.308;2022-07-23T14:30:53;7.55;;;6.95;;
15633;SDS011;14654;48.898;8.308;2022-07-23T14:33:19;7.22;;;6.72;;
15633;SDS011;14654;48.898;8.308;2022-07-23T14:35:45;6.82;;;6.30;;
15633;SDS011;14654;48.898;8.308;2022-07-23T14:38:11;6.70;;;6.15;;
15633;SDS011;14654;48.898;8.308;2022-07-23T14:40:36;7.50;;;6.90;;
15633;SDS011;14654;48.898;8.308;2022-07-23T14:43:02;7.20;;;6.70;;
15633;SDS011;14654;48.898;8.308;2022-07-23T14:45:27;7.90;;;7.15;;
15633;SDS011;14654;48.898;8.308;2022-07-23T14:47:55;7.60;;;7.10;;
15633;SDS011;14654;48.898;8.308;2022-07-23T14:50:20;7.70;;;7.10;;
15633;SDS011;14654;48.898;8.308;2022-07-23T14:52:46;7.22;;;6.72;;
15633;SDS011;14654;48.898;8.308;2022-07-23T14:55:11;6.55;;;6.15;;
15633;SDS011;14654;48.898;8.308;2022-07-23T14:57:37;8.05;;;7.45;;
15633;SDS011;14654;48.898;8.308;2022-07-23T15:00:03;7.47;;;6.78;;
15633;SDS011;14654;48.898;8.308;2022-07-23T15:02:30;7.32;;;6.72;;
15633;SDS011;14654;48.898;8.308;2022-07-23T15:04:56;7.90;;;7.25;;
15633;SDS011;14654;48.898;8.308;2022-07-23T15:07:25;7.80;;;7.20;;
15633;SDS011;14654;48.898;8.308;2022-07-23T15:09:51;7.55;;;6.97;;
15633;SDS011;14654;48.898;8.308;2022-07-23T15:12:16;7.63;;;6.95;;
15633;SDS011;14654;48.898;8.308;2022-07-23T15:14:42;6.75;;;6.28;;
15633;SDS011;14654;48.898;8.308;2022-07-23T15:17:08;7.30;;;6.80;;
15633;SDS011;14654;48.898;8.308;2022-07-23T15:19:34;7.35;;;6.80;;
15633;SDS011;14654;48.898;8.308;2022-07-23T15:21:59;8.07;;;7.47;;
15633;SDS011;14654;48.898;8.308;2022-07-23T15:24:24;7.70;;;7.10;;
15633;SDS011;14654;48.898;8.308;2022-07-23T15:26:50;7.50;;;6.90;;
15633;SDS011;14654;48.898;8.308;2022-07-23T15:29:15;7.60;;;7.10;;
15633;SDS011;14654;48.898;8.308;2022-07-23T15:31:41;7.20;;;6.70;;
15633;SDS011;14654;48.898;8.308;2022-07-23T15:34:06;6.80;;;6.35;;
15633;SDS011;14654;48.898;8.308;2022-07-23T15:36:31;7.18;;;6.68;;
15633;SDS011;14654;48.898;8.308;2022-07-23T15:38:57;7.37;;;6.87;;
15633;SDS011;14654;48.898;8.308;2022-07-23T15:41:22;7.17;;;6.67;;
15633;SDS011;14654;48.898;8.308;2022-07-23T15:43:49;6.73;;;6.23;;
15633;SDS011;14654;48.898;8.308;2022-07-23T15:46:16;6.67;;;6.17;;
15633;SDS011;14654;48.898;8.308;2022-07-23T15:48:43;6.90;;;6.40;;
15633;SDS011;14654;48.898;8.308;2022-07-23T15:51:10;6.67;;;6.17;;
15633;SDS011;14654;48.898;8.308;2022-07-23T15:53:35;6.70;;;6.30;;